Highgate, VT

12:50 PM EDT on September 05, 2015 (GMT -0400)
Franklin County State | | Change Station
CLOSE
Current Station
Airport
Location: Highgate,
Elevation: 226 ft
Nearby Weather Stations

Elev 226 ft 44.94 °N, 73.10 °W | Updated 15 minutes ago

Clear
Clear
79 °F
Feels Like 79 °F
N
5
Wind Variable Wind from SSW

Today
High -- | Low -- °F
--% Chance of Precip.
Yesterday
High -- | Low -- °F
Precip. -- in
6:18 AM 7:22 PM
Waning Gibbous, 47% visible
Pressure 30.23 in
Visibility 10.0 miles
Clouds Clear
Dew Point 62 °F
Humidity 56%
Rainfall 0.00 in
Snow Depth Not available.
UV 8 out of 12
Pollen 7.60 out of 12
Air Quality Not available.
Flu Activity Not available.
METAR KFSO 051635Z AUTO 20004KT 10SM CLR 26/17 A3023 RMK AO2 T02630168
Pressure 30.23 in
Visibility 10.0 miles
Clouds Clear
Dew Point 62 °F
Humidity 56%
Rainfall 0.00 in
Snow Depth Not available.
UV 8 out of 12
Pollen 7.60 out of 12
Air Quality Not available.
Flu Activity Not available.
METAR KFSO 051635Z AUTO 20004KT 10SM CLR 26/17 A3023 RMK AO2 T02630168

10-Day Weather Forecast

×

Almanac

Astronomy

Sep. 05, 2015 Rise Set
Actual Time
Civil Twilight
Nautical Twilight
Astronomical Twilight
Moon
Length of Visible Light
Length of Day
Tomorrow will be .
, % of the Moon is Illuminated

Today's Extremes

State Highs State Lows

Community

WunderPhotos

Upload Photos

1,852,498 photos uploaded!

WunderBlogs® & News

Nearby

Air Quality

  Air Quality AQ Index Pollutant
Not available.

Snow Depth

Station Depth Elevation

Earthquake Activity

City Distance Mag. Time & Date
Minimum magnitude displayed is 2.5.

Coastal Water Temperatures

Place Temperature

Stations

Nearby Weather Stations

Station Location Temp. Windchill Dew Point Humidity Wind Precip. Elev Updated Type